sensor_id;sensor_type;location;lat;lon;timestamp;pressure;altitude;pressure_sealevel;temperature;humidity
41062;BME280;26812;42.662;23.352;2023-03-18T00:00:38;95313.88;;;1.91;73.20
41062;BME280;26812;42.662;23.352;2023-03-18T00:03:05;95330.16;;;1.99;73.75
41062;BME280;26812;42.662;23.352;2023-03-18T00:05:31;95297.22;;;1.73;73.74
41062;BME280;26812;42.662;23.352;2023-03-18T00:07:57;95312.56;;;1.93;73.81
41062;BME280;26812;42.662;23.352;2023-03-18T00:10:22;95300.69;;;2.06;73.41
41062;BME280;26812;42.662;23.352;2023-03-18T00:12:48;95313.94;;;2.33;72.73
41062;BME280;26812;42.662;23.352;2023-03-18T00:15:14;95309.13;;;2.30;71.71
41062;BME280;26812;42.662;23.352;2023-03-18T00:17:41;95327.19;;;2.65;69.85
41062;BME280;26812;42.662;23.352;2023-03-18T00:20:08;95288.97;;;2.02;70.83
41062;BME280;26812;42.662;23.352;2023-03-18T00:22:37;95314.53;;;2.08;72.44
41062;BME280;26812;42.662;23.352;2023-03-18T00:25:05;95304.00;;;2.18;71.50
41062;BME280;26812;42.662;23.352;2023-03-18T00:27:31;95310.19;;;2.29;71.03
41062;BME280;26812;42.662;23.352;2023-03-18T00:29:58;95293.50;;;2.38;70.97
41062;BME280;26812;42.662;23.352;2023-03-18T00:32:25;95300.06;;;2.26;71.13
41062;BME280;26812;42.662;23.352;2023-03-18T00:34:52;95276.66;;;2.23;71.51
41062;BME280;26812;42.662;23.352;2023-03-18T00:37:17;95289.50;;;2.41;70.80
41062;BME280;26812;42.662;23.352;2023-03-18T00:40:05;95292.69;;;2.38;70.92
41062;BME280;26812;42.662;23.352;2023-03-18T00:42:36;95296.00;;;2.55;70.40
41062;BME280;26812;42.662;23.352;2023-03-18T00:45:07;95274.34;;;2.36;70.62
41062;BME280;26812;42.662;23.352;2023-03-18T00:47:35;95265.00;;;2.34;70.42
41062;BME280;26812;42.662;23.352;2023-03-18T00:50:03;95275.94;;;2.37;70.82
41062;BME280;26812;42.662;23.352;2023-03-18T00:52:28;95257.84;;;2.34;70.35
41062;BME280;26812;42.662;23.352;2023-03-18T00:54:54;95246.81;;;2.15;70.54
41062;BME280;26812;42.662;23.352;2023-03-18T00:57:19;95272.94;;;2.24;70.96
41062;BME280;26812;42.662;23.352;2023-03-18T00:59:45;95246.25;;;1.76;71.67
41062;BME280;26812;42.662;23.352;2023-03-18T01:02:10;95224.63;;;1.63;72.76
41062;BME280;26812;42.662;23.352;2023-03-18T01:04:36;95270.88;;;1.99;72.38
41062;BME280;26812;42.662;23.352;2023-03-18T01:07:02;95261.56;;;1.64;73.49
41062;BME280;26812;42.662;23.352;2023-03-18T01:09:27;95260.75;;;1.37;75.22
41062;BME280;26812;42.662;23.352;2023-03-18T01:11:53;95266.84;;;1.91;72.58
41062;BME280;26812;42.662;23.352;2023-03-18T01:14:18;95244.91;;;1.74;72.48
41062;BME280;26812;42.662;23.352;2023-03-18T01:16:44;95243.72;;;1.60;73.30
41062;BME280;26812;42.662;23.352;2023-03-18T01:19:11;95235.53;;;1.66;73.95
41062;BME280;26812;42.662;23.352;2023-03-18T01:21:37;95202.44;;;1.20;74.06
41062;BME280;26812;42.662;23.352;2023-03-18T01:24:03;95230.75;;;1.36;75.00
41062;BME280;26812;42.662;23.352;2023-03-18T01:26:29;95242.47;;;1.67;74.40
41062;BME280;26812;42.662;23.352;2023-03-18T01:28:54;95239.72;;;1.57;74.41
41062;BME280;26812;42.662;23.352;2023-03-18T01:31:19;95235.25;;;1.63;73.91
41062;BME280;26812;42.662;23.352;2023-03-18T01:33:45;95245.22;;;1.82;73.54
41062;BME280;26812;42.662;23.352;2023-03-18T01:36:12;95237.19;;;1.72;72.38
41062;BME280;26812;42.662;23.352;2023-03-18T01:38:37;95241.22;;;1.48;73.81
41062;BME280;26812;42.662;23.352;2023-03-18T01:41:05;95235.72;;;1.54;74.04
41062;BME280;26812;42.662;23.352;2023-03-18T01:43:33;95252.22;;;1.89;72.89
41062;BME280;26812;42.662;23.352;2023-03-18T01:46:00;95241.22;;;1.80;73.07
41062;BME280;26812;42.662;23.352;2023-03-18T01:48:29;95240.53;;;1.58;73.57
41062;BME280;26812;42.662;23.352;2023-03-18T01:50:59;95220.47;;;1.77;72.59
41062;BME280;26812;42.662;23.352;2023-03-18T01:53:28;95245.59;;;1.91;71.94
41062;BME280;26812;42.662;23.352;2023-03-18T01:55:56;95251.47;;;1.66;72.50
41062;BME280;26812;42.662;23.352;2023-03-18T01:58:32;95231.22;;;1.28;73.36
41062;BME280;26812;42.662;23.352;2023-03-18T02:01:02;95239.91;;;1.50;73.98
41062;BME280;26812;42.662;23.352;2023-03-18T02:03:29;95204.13;;;0.99;74.60
41062;BME280;26812;42.662;23.352;2023-03-18T02:05:55;95238.13;;;1.29;74.94
41062;BME280;26812;42.662;23.352;2023-03-18T02:08:20;95241.41;;;1.41;75.11
41062;BME280;26812;42.662;23.352;2023-03-18T02:10:46;95172.41;;;1.14;74.54
41062;BME280;26812;42.662;23.352;2023-03-18T02:13:13;95218.72;;;1.55;73.87
41062;BME280;26812;42.662;23.352;2023-03-18T02:18:41;95224.63;;;1.63;73.88
41062;BME280;26812;42.662;23.352;2023-03-18T02:26:30;95240.28;;;1.32;74.56
41062;BME280;26812;42.662;23.352;2023-03-18T02:28:59;95228.59;;;1.33;74.42
41062;BME280;26812;42.662;23.352;2023-03-18T02:31:30;95219.53;;;1.29;74.43
41062;BME280;26812;42.662;23.352;2023-03-18T02:33:57;95213.81;;;1.15;74.97
41062;BME280;26812;42.662;23.352;2023-03-18T02:36:25;95217.69;;;1.57;73.44
41062;BME280;26812;42.662;23.352;2023-03-18T02:38:55;95231.38;;;1.48;74.02
41062;BME280;26812;42.662;23.352;2023-03-18T02:41:23;95223.00;;;1.30;73.95
41062;BME280;26812;42.662;23.352;2023-03-18T02:43:50;95231.31;;;1.38;73.91
41062;BME280;26812;42.662;23.352;2023-03-18T02:49:11;95215.63;;;1.69;71.48
41062;BME280;26812;42.662;23.352;2023-03-18T02:51:37;95221.66;;;1.27;72.54
41062;BME280;26812;42.662;23.352;2023-03-18T02:54:12;95225.13;;;1.06;74.85
41062;BME280;26812;42.662;23.352;2023-03-18T02:56:39;95209.22;;;1.06;74.56
41062;BME280;26812;42.662;23.352;2023-03-18T02:59:06;95216.69;;;1.09;74.61
41062;BME280;26812;42.662;23.352;2023-03-18T03:01:32;95225.16;;;1.33;75.00
41062;BME280;26812;42.662;23.352;2023-03-18T03:03:58;95221.88;;;1.52;74.16
41062;BME280;26812;42.662;23.352;2023-03-18T03:06:24;95207.19;;;1.45;72.57
41062;BME280;26812;42.662;23.352;2023-03-18T03:08:51;95209.56;;;1.14;73.28
41062;BME280;26812;42.662;23.352;2023-03-18T03:11:17;95232.16;;;1.44;73.36
41062;BME280;26812;42.662;23.352;2023-03-18T03:13:43;95224.38;;;1.37;72.93
41062;BME280;26812;42.662;23.352;2023-03-18T03:16:12;95228.84;;;1.32;73.40
41062;BME280;26812;42.662;23.352;2023-03-18T03:18:38;95241.31;;;1.31;73.68
41062;BME280;26812;42.662;23.352;2023-03-18T03:21:05;95231.59;;;1.15;73.79
41062;BME280;26812;42.662;23.352;2023-03-18T03:23:30;95237.66;;;1.10;74.36
41062;BME280;26812;42.662;23.352;2023-03-18T03:25:56;95212.38;;;1.03;73.67
41062;BME280;26812;42.662;23.352;2023-03-18T03:28:22;95242.25;;;0.93;74.95
41062;BME280;26812;42.662;23.352;2023-03-18T03:30:48;95248.03;;;0.90;74.80
41062;BME280;26812;42.662;23.352;2023-03-18T03:33:14;95251.38;;;1.02;73.75
41062;BME280;26812;42.662;23.352;2023-03-18T03:35:40;95231.88;;;0.91;72.71
41062;BME280;26812;42.662;23.352;2023-03-18T03:38:06;95232.53;;;1.04;73.29
41062;BME280;26812;42.662;23.352;2023-03-18T03:40:32;95242.56;;;0.97;74.02
41062;BME280;26812;42.662;23.352;2023-03-18T03:42:58;95249.53;;;1.03;74.16
41062;BME280;26812;42.662;23.352;2023-03-18T03:45:24;95222.19;;;1.02;73.63
41062;BME280;26812;42.662;23.352;2023-03-18T03:47:49;95245.88;;;1.36;72.84
41062;BME280;26812;42.662;23.352;2023-03-18T03:50:15;95248.84;;;1.39;72.26
41062;BME280;26812;42.662;23.352;2023-03-18T03:52:42;95250.13;;;1.37;71.52
41062;BME280;26812;42.662;23.352;2023-03-18T03:55:10;95238.66;;;1.04;73.05
41062;BME280;26812;42.662;23.352;2023-03-18T03:57:36;95209.88;;;0.69;73.35
41062;BME280;26812;42.662;23.352;2023-03-18T04:00:08;95248.03;;;0.90;72.73
41062;BME280;26812;42.662;23.352;2023-03-18T04:02:38;95239.22;;;0.84;72.94
41062;BME280;26812;42.662;23.352;2023-03-18T04:05:04;95238.22;;;0.90;73.19
41062;BME280;26812;42.662;23.352;2023-03-18T04:07:30;95249.06;;;0.89;73.07
41062;BME280;26812;42.662;23.352;2023-03-18T04:09:56;95237.16;;;0.91;72.38
41062;BME280;26812;42.662;23.352;2023-03-18T04:12:21;95250.31;;;0.81;72.38
41062;BME280;26812;42.662;23.352;2023-03-18T04:14:47;95264.63;;;0.80;73.09
41062;BME280;26812;42.662;23.352;2023-03-18T04:17:13;95259.03;;;0.99;72.42
41062;BME280;26812;42.662;23.352;2023-03-18T04:19:38;95253.56;;;1.10;70.87
41062;BME280;26812;42.662;23.352;2023-03-18T04:22:04;95275.41;;;1.17;70.60
41062;BME280;26812;42.662;23.352;2023-03-18T04:24:30;95269.03;;;1.18;69.91
41062;BME280;26812;42.662;23.352;2023-03-18T04:26:56;95268.41;;;1.33;70.21
41062;BME280;26812;42.662;23.352;2023-03-18T04:29:22;95266.78;;;1.05;70.41
41062;BME280;26812;42.662;23.352;2023-03-18T04:31:47;95270.38;;;0.72;71.52
41062;BME280;26812;42.662;23.352;2023-03-18T04:34:13;95230.97;;;0.20;72.46
41062;BME280;26812;42.662;23.352;2023-03-18T04:36:38;95291.38;;;0.57;73.71
41062;BME280;26812;42.662;23.352;2023-03-18T04:39:04;95282.47;;;0.63;72.39
41062;BME280;26812;42.662;23.352;2023-03-18T04:41:29;95291.25;;;0.47;72.98
41062;BME280;26812;42.662;23.352;2023-03-18T04:43:55;95286.84;;;0.74;71.87
41062;BME280;26812;42.662;23.352;2023-03-18T04:46:21;95264.56;;;0.75;71.17
41062;BME280;26812;42.662;23.352;2023-03-18T04:48:47;95297.22;;;0.76;71.55
41062;BME280;26812;42.662;23.352;2023-03-18T04:51:13;95296.44;;;0.58;71.72
41062;BME280;26812;42.662;23.352;2023-03-18T04:53:39;95289.56;;;0.41;73.01
41062;BME280;26812;42.662;23.352;2023-03-18T04:56:05;95308.19;;;0.63;73.45
41062;BME280;26812;42.662;23.352;2023-03-18T04:58:31;95287.59;;;0.70;72.61
41062;BME280;26812;42.662;23.352;2023-03-18T05:00:57;95299.41;;;0.84;72.03
41062;BME280;26812;42.662;23.352;2023-03-18T05:03:22;95282.56;;;0.51;72.38
41062;BME280;26812;42.662;23.352;2023-03-18T05:05:48;95315.97;;;1.13;71.37
41062;BME280;26812;42.662;23.352;2023-03-18T05:08:14;95292.50;;;1.27;69.20
41062;BME280;26812;42.662;23.352;2023-03-18T05:10:40;95307.91;;;1.03;70.21
41062;BME280;26812;42.662;23.352;2023-03-18T05:13:06;95298.28;;;0.97;70.44
41062;BME280;26812;42.662;23.352;2023-03-18T05:15:32;95310.84;;;0.84;70.78
41062;BME280;26812;42.662;23.352;2023-03-18T05:17:58;95278.75;;;0.86;71.62
41062;BME280;26812;42.662;23.352;2023-03-18T05:20:24;95286.91;;;1.23;70.00
41062;BME280;26812;42.662;23.352;2023-03-18T05:22:49;95295.66;;;1.77;67.78
41062;BME280;26812;42.662;23.352;2023-03-18T05:25:15;95276.22;;;1.45;67.94
41062;BME280;26812;42.662;23.352;2023-03-18T05:27:40;95283.75;;;1.26;69.58
41062;BME280;26812;42.662;23.352;2023-03-18T05:30:07;95284.63;;;1.59;69.51
41062;BME280;26812;42.662;23.352;2023-03-18T05:32:33;95292.59;;;1.91;68.65
41062;BME280;26812;42.662;23.352;2023-03-18T05:34:59;95265.06;;;1.70;68.25
41062;BME280;26812;42.662;23.352;2023-03-18T05:37:25;95267.34;;;1.88;68.35
41062;BME280;26812;42.662;23.352;2023-03-18T05:39:51;95292.34;;;2.24;67.93
41062;BME280;26812;42.662;23.352;2023-03-18T05:42:16;95261.31;;;1.98;66.71
41062;BME280;26812;42.662;23.352;2023-03-18T05:44:42;95285.97;;;2.25;65.98
41062;BME280;26812;42.662;23.352;2023-03-18T05:47:08;95286.25;;;2.29;65.91
41062;BME280;26812;42.662;23.352;2023-03-18T05:49:34;95300.53;;;2.17;67.37
41062;BME280;26812;42.662;23.352;2023-03-18T05:52:00;95287.00;;;2.61;67.24
41062;BME280;26812;42.662;23.352;2023-03-18T05:54:27;95295.88;;;3.39;65.20
41062;BME280;26812;42.662;23.352;2023-03-18T05:56:53;95313.81;;;4.56;60.82
41062;BME280;26812;42.662;23.352;2023-03-18T05:59:19;95296.31;;;5.24;58.83
41062;BME280;26812;42.662;23.352;2023-03-18T06:01:46;95312.34;;;6.23;55.05
41062;BME280;26812;42.662;23.352;2023-03-18T06:04:11;95312.72;;;7.46;52.61
41062;BME280;26812;42.662;23.352;2023-03-18T06:06:37;95318.34;;;9.36;46.82
41062;BME280;26812;42.662;23.352;2023-03-18T06:09:05;95316.16;;;11.05;41.77
41062;BME280;26812;42.662;23.352;2023-03-18T06:11:31;95303.81;;;11.52;39.17
41062;BME280;26812;42.662;23.352;2023-03-18T06:13:56;95310.00;;;12.18;37.24
41062;BME280;26812;42.662;23.352;2023-03-18T06:16:22;95321.31;;;12.63;36.81
41062;BME280;26812;42.662;23.352;2023-03-18T06:18:47;95312.38;;;12.54;36.79
41062;BME280;26812;42.662;23.352;2023-03-18T06:21:13;95307.31;;;12.27;36.71
41062;BME280;26812;42.662;23.352;2023-03-18T06:23:39;95326.16;;;11.92;37.48
41062;BME280;26812;42.662;23.352;2023-03-18T06:26:05;95302.59;;;11.27;38.28
41062;BME280;26812;42.662;23.352;2023-03-18T06:28:33;95312.66;;;11.35;38.44
41062;BME280;26812;42.662;23.352;2023-03-18T06:30:58;95293.69;;;11.18;38.80
41062;BME280;26812;42.662;23.352;2023-03-18T06:33:24;95272.53;;;11.42;38.37
41062;BME280;26812;42.662;23.352;2023-03-18T06:35:51;95276.00;;;12.17;37.05
41062;BME280;26812;42.662;23.352;2023-03-18T06:38:17;95300.59;;;13.40;36.64
41062;BME280;26812;42.662;23.352;2023-03-18T06:40:43;95270.38;;;15.62;32.35
41062;BME280;26812;42.662;23.352;2023-03-18T06:43:09;95264.59;;;16.96;29.71
41062;BME280;26812;42.662;23.352;2023-03-18T06:45:35;95271.03;;;17.98;28.04
41062;BME280;26812;42.662;23.352;2023-03-18T06:48:01;95239.13;;;17.99;27.40
41062;BME280;26812;42.662;23.352;2023-03-18T06:50:27;95279.38;;;18.41;26.42
41062;BME280;26812;42.662;23.352;2023-03-18T06:52:53;95270.84;;;18.42;26.20
41062;BME280;26812;42.662;23.352;2023-03-18T06:55:19;95272.09;;;18.83;25.75
41062;BME280;26812;42.662;23.352;2023-03-18T06:57:44;95284.53;;;19.23;25.35
41062;BME280;26812;42.662;23.352;2023-03-18T07:00:11;95289.97;;;19.23;25.03
41062;BME280;26812;42.662;23.352;2023-03-18T07:02:37;95268.03;;;18.58;24.95
41062;BME280;26812;42.662;23.352;2023-03-18T07:05:03;95267.31;;;18.61;25.16
41062;BME280;26812;42.662;23.352;2023-03-18T07:07:29;95273.47;;;18.74;25.21
41062;BME280;26812;42.662;23.352;2023-03-18T07:09:54;95267.97;;;19.35;24.22
41062;BME280;26812;42.662;23.352;2023-03-18T07:12:20;95269.19;;;18.96;24.83
41062;BME280;26812;42.662;23.352;2023-03-18T07:14:45;95273.84;;;20.36;23.60
41062;BME280;26812;42.662;23.352;2023-03-18T07:17:11;95283.38;;;20.75;23.05
41062;BME280;26812;42.662;23.352;2023-03-18T07:19:36;95274.41;;;22.52;21.09
41062;BME280;26812;42.662;23.352;2023-03-18T07:22:02;95265.78;;;23.58;20.00
41062;BME280;26812;42.662;23.352;2023-03-18T07:24:28;95260.13;;;24.83;18.68
41062;BME280;26812;42.662;23.352;2023-03-18T07:26:55;95272.88;;;25.94;17.76
41062;BME280;26812;42.662;23.352;2023-03-18T07:29:20;95268.09;;;26.02;17.72
41062;BME280;26812;42.662;23.352;2023-03-18T07:31:46;95273.84;;;24.93;18.50
41062;BME280;26812;42.662;23.352;2023-03-18T07:34:12;95274.69;;;23.05;20.57
41062;BME280;26812;42.662;23.352;2023-03-18T07:36:39;95277.09;;;23.32;20.39
41062;BME280;26812;42.662;23.352;2023-03-18T07:39:06;95278.75;;;24.07;19.66
41062;BME280;26812;42.662;23.352;2023-03-18T07:41:34;95266.16;;;24.24;19.06
41062;BME280;26812;42.662;23.352;2023-03-18T07:44:00;95271.28;;;24.04;19.48
41062;BME280;26812;42.662;23.352;2023-03-18T07:46:25;95264.94;;;23.47;20.21
41062;BME280;26812;42.662;23.352;2023-03-18T07:48:51;95275.78;;;25.03;19.04
41062;BME280;26812;42.662;23.352;2023-03-18T07:51:17;95275.66;;;25.32;18.01
41062;BME280;26812;42.662;23.352;2023-03-18T07:53:43;95269.78;;;26.30;17.59
41062;BME280;26812;42.662;23.352;2023-03-18T07:56:09;95278.53;;;25.80;17.35
41062;BME280;26812;42.662;23.352;2023-03-18T07:58:35;95281.66;;;27.06;17.09
41062;BME280;26812;42.662;23.352;2023-03-18T08:01:02;95275.16;;;28.27;15.92
41062;BME280;26812;42.662;23.352;2023-03-18T08:03:28;95259.31;;;28.71;15.41
41062;BME280;26812;42.662;23.352;2023-03-18T08:05:53;95260.47;;;24.99;17.68
41062;BME280;26812;42.662;23.352;2023-03-18T08:08:20;95251.03;;;19.03;24.16
41062;BME280;26812;42.662;23.352;2023-03-18T08:10:46;95267.34;;;21.11;22.87
41062;BME280;26812;42.662;23.352;2023-03-18T08:13:12;95242.56;;;21.78;21.72
41062;BME280;26812;42.662;23.352;2023-03-18T08:15:38;95257.75;;;22.16;21.15
41062;BME280;26812;42.662;23.352;2023-03-18T08:18:10;95262.19;;;23.29;20.65
41062;BME280;26812;42.662;23.352;2023-03-18T08:20:36;95264.94;;;23.40;20.18
41062;BME280;26812;42.662;23.352;2023-03-18T08:23:02;95249.25;;;22.36;20.98
41062;BME280;26812;42.662;23.352;2023-03-18T08:25:28;95281.22;;;22.07;21.45
41062;BME280;26812;42.662;23.352;2023-03-18T08:27:53;95273.19;;;22.42;21.31
41062;BME280;26812;42.662;23.352;2023-03-18T08:30:19;95274.75;;;22.36;21.07
41062;BME280;26812;42.662;23.352;2023-03-18T08:32:45;95254.56;;;22.11;21.24
41062;BME280;26812;42.662;23.352;2023-03-18T08:37:42;95253.28;;;21.50;22.06
41062;BME280;26812;42.662;23.352;2023-03-18T08:40:08;95259.84;;;21.82;21.82
41062;BME280;26812;42.662;23.352;2023-03-18T08:42:34;95255.81;;;22.97;20.99
41062;BME280;26812;42.662;23.352;2023-03-18T08:44:59;95257.53;;;23.62;20.31
41062;BME280;26812;42.662;23.352;2023-03-18T08:47:25;95250.66;;;22.91;20.34
41062;BME280;26812;42.662;23.352;2023-03-18T08:49:51;95252.31;;;23.10;20.49
41062;BME280;26812;42.662;23.352;2023-03-18T08:52:17;95258.28;;;24.23;19.61
41062;BME280;26812;42.662;23.352;2023-03-18T08:54:43;95232.34;;;23.42;19.79
41062;BME280;26812;42.662;23.352;2023-03-18T08:57:10;95253.59;;;24.30;18.86
41062;BME280;26812;42.662;23.352;2023-03-18T08:59:35;95240.91;;;23.01;20.00
41062;BME280;26812;42.662;23.352;2023-03-18T09:02:01;95262.09;;;23.01;20.05
41062;BME280;26812;42.662;23.352;2023-03-18T09:04:36;95260.28;;;22.46;20.76
41062;BME280;26812;42.662;23.352;2023-03-18T09:07:02;95266.56;;;22.47;21.21
41062;BME280;26812;42.662;23.352;2023-03-18T09:09:28;95277.53;;;22.50;20.58
41062;BME280;26812;42.662;23.352;2023-03-18T09:11:54;95263.38;;;23.39;19.77
41062;BME280;26812;42.662;23.352;2023-03-18T09:14:20;95232.69;;;24.47;18.41
41062;BME280;26812;42.662;23.352;2023-03-18T09:16:45;95271.41;;;25.17;17.70
41062;BME280;26812;42.662;23.352;2023-03-18T09:19:11;95263.13;;;25.20;17.41
41062;BME280;26812;42.662;23.352;2023-03-18T09:21:37;95266.94;;;24.32;17.61
41062;BME280;26812;42.662;23.352;2023-03-18T09:24:03;95274.47;;;22.62;19.24
41062;BME280;26812;42.662;23.352;2023-03-18T09:26:28;95282.06;;;22.21;19.90
41062;BME280;26812;42.662;23.352;2023-03-18T09:28:54;95261.72;;;21.30;21.42
41062;BME280;26812;42.662;23.352;2023-03-18T09:31:20;95243.88;;;21.10;21.08
41062;BME280;26812;42.662;23.352;2023-03-18T09:33:45;95211.44;;;20.78;20.47
41062;BME280;26812;42.662;23.352;2023-03-18T09:36:17;95258.09;;;20.86;20.69
41062;BME280;26812;42.662;23.352;2023-03-18T09:38:50;95275.94;;;21.09;20.48
41062;BME280;26812;42.662;23.352;2023-03-18T09:44:25;95268.63;;;16.06;27.14
41062;BME280;26812;42.662;23.352;2023-03-18T09:52:12;95260.72;;;16.54;28.52
41062;BME280;26812;42.662;23.352;2023-03-18T09:55:04;95265.53;;;17.32;26.58
41062;BME280;26812;42.662;23.352;2023-03-18T09:57:38;95244.50;;;17.64;25.37
41062;BME280;26812;42.662;23.352;2023-03-18T10:02:41;95261.06;;;17.55;24.87
41062;BME280;26812;42.662;23.352;2023-03-18T10:05:15;95262.47;;;17.18;25.23
41062;BME280;26812;42.662;23.352;2023-03-18T10:07:43;95224.06;;;17.07;26.02
41062;BME280;26812;42.662;23.352;2023-03-18T10:12:49;95250.63;;;18.82;23.37
41062;BME280;26812;42.662;23.352;2023-03-18T10:15:20;95258.47;;;18.29;23.92
41062;BME280;26812;42.662;23.352;2023-03-18T10:17:54;95225.53;;;16.33;26.50
41062;BME280;26812;42.662;23.352;2023-03-18T10:26:07;95264.31;;;17.77;23.09
41062;BME280;26812;42.662;23.352;2023-03-18T10:34:15;95242.03;;;18.06;23.74
41062;BME280;26812;42.662;23.352;2023-03-18T10:39:32;95248.13;;;17.21;23.46
41062;BME280;26812;42.662;23.352;2023-03-18T10:42:06;95255.94;;;17.22;23.85
41062;BME280;26812;42.662;23.352;2023-03-18T10:44:39;95239.22;;;16.64;24.82
41062;BME280;26812;42.662;23.352;2023-03-18T10:47:14;95240.94;;;17.28;24.15
41062;BME280;26812;42.662;23.352;2023-03-18T10:49:47;95253.25;;;18.05;22.47
41062;BME280;26812;42.662;23.352;2023-03-18T10:52:44;95251.38;;;17.42;22.34
41062;BME280;26812;42.662;23.352;2023-03-18T10:55:15;95245.84;;;17.38;23.85
41062;BME280;26812;42.662;23.352;2023-03-18T10:57:41;95245.81;;;16.91;24.44
41062;BME280;26812;42.662;23.352;2023-03-18T11:00:24;95244.19;;;16.74;24.57
41062;BME280;26812;42.662;23.352;2023-03-18T11:02:51;95241.16;;;16.92;23.38
41062;BME280;26812;42.662;23.352;2023-03-18T11:05:25;95221.16;;;16.16;23.29
41062;BME280;26812;42.662;23.352;2023-03-18T11:08:01;95236.44;;;15.68;23.39
41062;BME280;26812;42.662;23.352;2023-03-18T11:10:33;95225.06;;;15.17;24.11
41062;BME280;26812;42.662;23.352;2023-03-18T11:13:00;95207.34;;;14.63;25.73
41062;BME280;26812;42.662;23.352;2023-03-18T11:15:28;95233.75;;;14.53;26.06
41062;BME280;26812;42.662;23.352;2023-03-18T11:17:57;95225.72;;;13.82;28.33
41062;BME280;26812;42.662;23.352;2023-03-18T11:20:34;95229.72;;;12.62;30.24
41062;BME280;26812;42.662;23.352;2023-03-18T11:23:14;95214.28;;;11.59;30.94
41062;BME280;26812;42.662;23.352;2023-03-18T11:25:44;95238.75;;;11.54;32.31
41062;BME280;26812;42.662;23.352;2023-03-18T11:28:20;95203.97;;;11.52;31.16
41062;BME280;26812;42.662;23.352;2023-03-18T11:30:54;95234.22;;;11.97;31.29
41062;BME280;26812;42.662;23.352;2023-03-18T11:33:23;95216.50;;;12.69;29.84
41062;BME280;26812;42.662;23.352;2023-03-18T11:35:53;95222.13;;;13.70;28.47
41062;BME280;26812;42.662;23.352;2023-03-18T11:38:29;95230.66;;;14.22;27.29
41062;BME280;26812;42.662;23.352;2023-03-18T11:43:31;95210.69;;;14.47;27.72
41062;BME280;26812;42.662;23.352;2023-03-18T11:45:58;95229.06;;;14.21;26.24
41062;BME280;26812;42.662;23.352;2023-03-18T11:48:30;95228.19;;;13.66;27.23
41062;BME280;26812;42.662;23.352;2023-03-18T12:10:48;95227.88;;;12.28;30.67
41062;BME280;26812;42.662;23.352;2023-03-18T12:13:39;95234.88;;;12.84;29.50
41062;BME280;26812;42.662;23.352;2023-03-18T12:18:47;95228.16;;;14.17;28.40
41062;BME280;26812;42.662;23.352;2023-03-18T12:29:57;95221.94;;;13.45;27.29
41062;BME280;26812;42.662;23.352;2023-03-18T12:32:30;95234.75;;;12.89;27.74
41062;BME280;26812;42.662;23.352;2023-03-18T12:35:28;95235.44;;;12.60;28.27
41062;BME280;26812;42.662;23.352;2023-03-18T12:38:10;95227.34;;;12.52;28.87
41062;BME280;26812;42.662;23.352;2023-03-18T12:46:38;95200.25;;;13.24;29.09
41062;BME280;26812;42.662;23.352;2023-03-18T12:49:27;95222.00;;;13.36;29.44
41062;BME280;26812;42.662;23.352;2023-03-18T12:52:08;95205.78;;;12.90;28.27
41062;BME280;26812;42.662;23.352;2023-03-18T12:55:09;95213.53;;;13.00;28.38
41062;BME280;26812;42.662;23.352;2023-03-18T12:57:47;95209.97;;;12.70;28.41
41062;BME280;26812;42.662;23.352;2023-03-18T13:02:52;95219.47;;;11.95;30.52
41062;BME280;26812;42.662;23.352;2023-03-18T13:05:33;95214.19;;;12.33;29.88
41062;BME280;26812;42.662;23.352;2023-03-18T13:10:30;95224.31;;;12.62;28.40
41062;BME280;26812;42.662;23.352;2023-03-18T13:13:01;95211.81;;;12.23;28.39
41062;BME280;26812;42.662;23.352;2023-03-18T13:15:46;95216.09;;;12.32;27.98
41062;BME280;26812;42.662;23.352;2023-03-18T13:18:27;95213.41;;;12.15;28.40
41062;BME280;26812;42.662;23.352;2023-03-18T13:20:57;95196.47;;;11.32;30.02
41062;BME280;26812;42.662;23.352;2023-03-18T13:42:57;95208.59;;;12.55;27.00
41062;BME280;26812;42.662;23.352;2023-03-18T13:45:37;95206.91;;;12.07;27.74
41062;BME280;26812;42.662;23.352;2023-03-18T13:48:09;95211.00;;;11.70;27.97
41062;BME280;26812;42.662;23.352;2023-03-18T13:50:38;95203.72;;;11.05;28.46
41062;BME280;26812;42.662;23.352;2023-03-18T13:53:17;95208.75;;;10.98;28.75
41062;BME280;26812;42.662;23.352;2023-03-18T13:55:48;95200.16;;;10.87;27.94
41062;BME280;26812;42.662;23.352;2023-03-18T13:58:20;95189.84;;;10.89;29.26
41062;BME280;26812;42.662;23.352;2023-03-18T14:13:56;95194.38;;;12.75;27.53
41062;BME280;26812;42.662;23.352;2023-03-18T14:19:27;95192.28;;;12.17;26.67
41062;BME280;26812;42.662;23.352;2023-03-18T14:22:29;95193.06;;;11.74;26.93
41062;BME280;26812;42.662;23.352;2023-03-18T14:25:22;95187.00;;;11.60;27.31
41062;BME280;26812;42.662;23.352;2023-03-18T14:33:00;95196.41;;;11.71;27.31
41062;BME280;26812;42.662;23.352;2023-03-18T14:35:34;95201.63;;;11.68;27.52
41062;BME280;26812;42.662;23.352;2023-03-18T14:38:18;95189.72;;;11.69;27.75
41062;BME280;26812;42.662;23.352;2023-03-18T14:40:46;95196.03;;;11.56;27.88
41062;BME280;26812;42.662;23.352;2023-03-18T14:43:26;95155.97;;;11.06;28.10
41062;BME280;26812;42.662;23.352;2023-03-18T14:46:00;95167.78;;;11.44;28.23
41062;BME280;26812;42.662;23.352;2023-03-18T14:48:29;95143.66;;;10.74;28.86
41062;BME280;26812;42.662;23.352;2023-03-18T14:51:00;95184.88;;;11.23;28.82
41062;BME280;26812;42.662;23.352;2023-03-18T14:56:01;95174.59;;;11.42;27.98
41062;BME280;26812;42.662;23.352;2023-03-18T14:58:27;95191.66;;;11.94;27.21
41062;BME280;26812;42.662;23.352;2023-03-18T15:00:56;95193.41;;;11.99;26.78
41062;BME280;26812;42.662;23.352;2023-03-18T15:03:28;95184.31;;;12.21;26.62
41062;BME280;26812;42.662;23.352;2023-03-18T15:05:57;95173.22;;;12.13;26.07
41062;BME280;26812;42.662;23.352;2023-03-18T15:08:33;95211.81;;;11.88;26.65
41062;BME280;26812;42.662;23.352;2023-03-18T15:11:02;95198.44;;;11.74;26.84